Dimmitt, TX (79027)

8:01 AM CDT on July 29, 2014 (GMT -0500)
West Bedford SMB (KTXDIMMI4) Elev 3904 ft | 34.54 °N, 102.34 °W | Change Station

Current weather conditions updated 2 seconds ago

Clear
Clear
63.3 °F
Feels Like 63.3 °F
N
0.0
Wind Variable Wind from South
Gusts 0.0 mph

Today is forecast to be Warmer than yesterday. A few thunderstorms possible.

Today
High -- | Low -- °F
--% Chance of Precip.
Yesterday
High -- | Low -- °F
Precip. -- in
6:57 AM 8:53 PM
Waxing Crescent, 6% visible
Pressure 30.28 in
Visibility 10.0 miles
Clouds Clear
Dew Point 61 °F
Humidity 93%
Rainfall 0.00 in
Snow Depth Not available.
UV 1 out of 12
Pollen 1.20 out of 12
Air Quality Not available.
Flu Activity Not available.
METAR KHRX 291255Z AUTO 19005KT 10SM CLR 18/17 A3028 RMK AO2 LTG DSNT N T01820166

More Conditions Fewer Conditions

Pressure 30.28 in
Visibility 10.0 miles
Clouds Clear
Dew Point 61 °F
Humidity 93%
Rainfall 0.00 in
Snow Depth Not available.
UV 1 out of 12
Pollen 1.20 out of 12
Air Quality Not available.
Flu Activity Not available.
METAR KHRX 291255Z AUTO 19005KT 10SM CLR 18/17 A3028 RMK AO2 LTG DSNT N T01820166

More Conditions Fewer Conditions

Nowcast | as of 7:19 am CDT on July 29, 2014

At 7 am...National Weather Service Doppler radar continued to show a broad area of rain showers and a few thunderstorms from the Texas and New Mexico state line eastward into Lubbock County. Additional scattered showers were developing across much of the South Plains and far southern Texas Panhandle. Through 830 am...this activity will move very slowly to the east. The heavier showers will be capable of producing brief downpours...which may result in ponding of water on area roadways and reduce visibility.

×

10-Day Weather Forecast

Almanac

Astronomy

Jul. 29, 2014 Rise Set
Actual Time 6:57 AM CDT 8:53 PM CDT
Civil Twilight 6:29 AM CDT 9:21 PM CDT
Nautical Twilight 5:55 AM CDT 9:55 PM CDT
Astronomical Twilight 5:19 AM CDT 10:30 PM CDT
Moon 9:27 AM CDT 10:16 PM CDT
Length of Visible Light 14h 51m
Length of Day
13h 56m
Tomorrow will be 1m 33s shorter.
Waxing Crescent, 6% of the Moon is Illuminated
Today
Waxing Crescent
Aug 3
First Quarter
Aug 10
Full
Aug 17
Last Quarter
Aug 25
New

Today's Extremes

State Highs State Lows

Community

WunderPhotos

Upload Photos

1,738,706 photos uploaded!

Nearby

Snow Depth

Station Depth Elevation
No new snow has been reported.

Earthquake Activity

City Distance Mag. Time & Date
No recent earthquake activity has been reported nearby.
Minimum magnitude displayed is 2.5.

Coastal Water Temperatures

Place Temperature
No Stations Reporting

Nearby Weather Stations

Station Location Temp. Dew Point Humidity Wind Precip. Elev Updated Type
West Bedford SMB, Dimmitt, TX 63.3 °F 61 °F 93% South  at  0.0 mph 0.00 in / hr 3904 ft 8:01 AM CDT Rapid Fire

Show More Stations Show Fewer Stations